Time;durP1;ratioP1;P1;durP2;ratioP2;P2;SDS_P1;SDS_P2;PMS_P1;PMS_P2;Temp;Humidity;BMP_temperature;BMP_pressure;BME280_temperature;BME280_humidity;BME280_pressure;Samples;Min_cycle;Max_cycle;Signal;HPM_P1;HPM_P2
2023/03/26 00:01:52;;;;;;;33.42;18.42;;;12.30;99.90;;;;;;6229031;22;20103;-93
2023/03/26 04:54:44;;;;;;;27.73;17.05;;;10.60;99.90;;;;;;6150559;22;20317;-91
2023/03/26 05:01:45;;;;;;;26.83;16.70;;;10.60;99.90;;;;;;6207161;22;20019;-93
2023/03/26 06:59:07;;;;;;;26.02;23.85;;;21.20;99.90;;;;;;6168709;22;20085;-94
2023/03/26 07:01:53;;;;;;;26.97;24.83;;;21.60;99.90;;;;;;6287743;22;20078;-93
2023/03/26 07:11:45;;;;;;;26.05;23.70;;;21.30;99.90;;;;;;6252293;22;20077;-96
2023/03/26 07:14:31;;;;;;;26.23;23.95;;;21.10;99.90;;;;;;6151282;23;20075;-93
2023/03/26 07:17:16;;;;;;;26.33;23.90;;;20.80;99.90;;;;;;6160787;23;20042;-93
2023/03/26 07:19:53;;;;;;;25.83;23.67;;;20.50;99.90;;;;;;6224903;22;20020;-85
2023/03/26 07:22:24;;;;;;;25.25;23.25;;;20.50;99.90;;;;;;6239902;23;20086;-88
2023/03/26 07:25:07;;;;;;;26.17;23.85;;;20.70;99.90;;;;;;6245810;23;20044;-83
2023/03/26 07:28:13;;;;;;;25.25;23.17;;;20.80;99.90;;;;;;6224927;23;20112;-84
2023/03/26 07:31:46;;;;;;;24.30;22.05;;;20.80;99.90;;;;;;6153002;23;20481;-84
2023/03/26 07:34:57;;;;;;;25.13;23.05;;;20.30;99.90;;;;;;6134105;23;20016;-83
2023/03/26 07:38:06;;;;;;;25.58;23.23;;;20.30;99.90;;;;;;6155068;23;20064;-84
2023/03/26 07:41:25;;;;;;;24.95;22.75;;;20.30;99.90;;;;;;6096435;23;20029;-87
2023/03/26 07:44:40;;;;;;;24.23;22.33;;;20.70;99.90;;;;;;6092733;23;20014;-83
2023/03/26 07:47:36;;;;;;;23.58;21.60;;;20.80;99.90;;;;;;6122833;23;20010;-84
2023/03/26 07:50:16;;;;;;;25.10;22.83;;;21.10;99.90;;;;;;6151940;23;20080;-83
2023/03/26 07:53:02;;;;;;;23.75;21.90;;;21.20;99.90;;;;;;6153646;23;20089;-83
2023/03/26 07:56:01;;;;;;;23.50;21.70;;;20.70;99.90;;;;;;6128423;23;20002;-81
2023/03/26 07:59:05;;;;;;;25.35;23.17;;;21.20;99.90;;;;;;6128422;23;20009;-82
2023/03/26 08:02:13;;;;;;;23.73;21.95;;;22.00;99.90;;;;;;6139486;23;20495;-83
2023/03/26 08:05:04;;;;;;;24.25;22.45;;;21.90;99.90;;;;;;6152504;23;20057;-83
2023/03/26 08:08:15;;;;;;;24.63;22.38;;;21.90;99.90;;;;;;6227949;23;20008;-83
2023/03/26 08:11:18;;;;;;;24.08;22.15;;;21.70;99.90;;;;;;6244891;23;20008;-83
2023/03/26 08:14:02;;;;;;;24.02;22.33;;;21.50;99.90;;;;;;6245044;23;20380;-82
2023/03/26 08:16:43;;;;;;;23.90;21.88;;;21.40;99.90;;;;;;6220136;23;20004;-82
2023/03/26 08:19:43;;;;;;;24.38;22.23;;;21.20;99.90;;;;;;6245044;23;20438;-82
2023/03/26 08:22:19;;;;;;;24.42;22.42;;;21.40;99.90;;;;;;6219828;23;20030;-82
2023/03/26 08:25:11;;;;;;;23.50;21.63;;;21.90;99.90;;;;;;6244890;23;20035;-82
2023/03/26 08:27:40;;;;;;;23.45;21.45;;;21.80;99.90;;;;;;6245451;23;20032;-82
2023/03/26 08:30:33;;;;;;;22.60;21.10;;;21.40;99.90;;;;;;6219643;23;20054;-82
2023/03/26 08:33:10;;;;;;;22.33;20.55;;;20.90;99.90;;;;;;6218334;23;20488;-83
2023/03/26 08:35:43;;;;;;;23.02;21.35;;;21.10;99.90;;;;;;6245520;23;20000;-81
2023/03/26 08:38:12;;;;;;;22.45;20.65;;;21.40;99.90;;;;;;6246536;23;20008;-80
2023/03/26 08:41:10;;;;;;;22.42;20.77;;;21.50;99.90;;;;;;6219625;23;20023;-81
2023/03/26 08:43:57;;;;;;;23.48;21.48;;;21.70;99.90;;;;;;6247012;22;20019;-81
2023/03/26 08:47:06;;;;;;;22.70;20.98;;;21.30;99.90;;;;;;6244984;23;20038;-81
2023/03/26 15:00:59;;;;;;;20.40;19.00;;;20.20;99.90;;;;;;6114159;22;20873;-91
2023/03/26 15:03:58;;;;;;;20.05;18.63;;;20.10;99.90;;;;;;6201825;23;20023;-90
2023/03/26 15:06:49;;;;;;;20.88;19.58;;;19.90;99.90;;;;;;6181557;23;20012;-91
2023/03/26 15:09:49;;;;;;;21.00;19.50;;;20.10;99.90;;;;;;6196302;23;20011;-90
2023/03/26 15:12:38;;;;;;;21.70;20.10;;;20.30;99.90;;;;;;6196387;23;20088;-94
2023/03/26 15:15:24;;;;;;;21.02;19.63;;;20.40;99.90;;;;;;6196457;23;20004;-90
2023/03/26 15:17:56;;;;;;;21.05;19.70;;;20.50;99.90;;;;;;6196504;23;20091;-93
2023/03/26 15:20:56;;;;;;;21.25;19.88;;;20.40;99.90;;;;;;6196388;23;20016;-92
2023/03/26 15:23:49;;;;;;;21.13;19.60;;;20.40;99.90;;;;;;6049053;23;20017;-92
2023/03/26 15:26:44;;;;;;;20.67;19.42;;;20.40;99.90;;;;;;6073065;23;20069;-91
2023/03/26 15:29:22;;;;;;;21.35;19.95;;;20.30;99.90;;;;;;6096528;23;20098;-94
2023/03/26 15:32:04;;;;;;;21.42;20.02;;;20.20;99.90;;;;;;6072426;23;20011;-91
2023/03/26 15:35:01;;;;;;;21.58;19.98;;;20.00;99.90;;;;;;6105091;23;20058;-93
2023/03/26 15:38:04;;;;;;;21.52;19.80;;;19.80;99.90;;;;;;6072224;23;20443;-93
2023/03/26 15:40:43;;;;;;;21.27;19.88;;;19.60;99.90;;;;;;6096407;23;20530;-90
2023/03/26 15:43:19;;;;;;;21.00;19.67;;;19.40;99.90;;;;;;6096548;23;20015;-92
2023/03/26 15:45:55;;;;;;;20.40;19.10;;;19.20;99.90;;;;;;6072982;23;20017;-92
2023/03/26 15:49:10;;;;;;;22.73;20.63;;;18.90;99.90;;;;;;6097053;23;20437;-91
2023/03/26 15:51:42;;;;;;;;;;;18.90;99.90;;;;;;6042139;23;20011;-93
2023/03/26 15:54:37;;;;;;;20.02;18.60;;;18.90;99.90;;;;;;6096247;23;19905;-91
2023/03/26 15:57:40;;;;;;;;;;;18.80;99.90;;;;;;6052784;23;20006;-94
2023/03/26 16:04:19;;;;;;;18.73;17.52;;;18.80;99.90;;;;;;6249427;23;20008;-94
2023/03/26 16:11:58;;;;;;;18.95;17.85;;;18.60;99.90;;;;;;6233947;22;20023;-93
2023/03/26 16:15:17;;;;;;;18.77;17.48;;;18.50;99.90;;;;;;6288198;22;20003;-92
2023/03/26 16:18:17;;;;;;;19.00;17.67;;;18.40;99.90;;;;;;6135114;23;20095;-93
2023/03/26 16:20:51;;;;;;;19.65;18.20;;;18.30;99.90;;;;;;6285007;22;20068;-89
2023/03/26 16:23:35;;;;;;;19.85;18.55;;;18.10;99.90;;;;;;6257031;22;20072;-92
2023/03/26 16:26:06;;;;;;;19.23;17.92;;;18.00;99.90;;;;;;6256412;22;20007;-92
2023/03/26 16:28:35;;;;;;;20.23;18.92;;;17.90;99.90;;;;;;6256620;22;20011;-91
2023/03/26 16:31:11;;;;;;;20.45;19.00;;;17.70;99.90;;;;;;6255841;22;20129;-93
2023/03/26 16:33:49;;;;;;;22.05;20.40;;;17.70;99.90;;;;;;6256206;22;20014;-92
2023/03/26 16:36:35;;;;;;;19.73;18.42;;;17.50;99.90;;;;;;6256163;22;20064;-92
2023/03/26 16:39:05;;;;;;;20.00;18.50;;;17.40;99.90;;;;;;6256023;22;20056;-93
2023/03/26 16:41:48;;;;;;;19.30;18.00;;;17.30;99.90;;;;;;6255705;22;20452;-91
2023/03/26 16:44:48;;;;;;;19.42;18.13;;;17.30;99.90;;;;;;6220415;23;20063;-91
2023/03/26 16:47:39;;;;;;;19.70;18.40;;;17.20;99.90;;;;;;6219975;23;20032;-92
2023/03/26 16:56:55;;;;;;;21.30;19.60;;;16.80;99.90;;;;;;6149879;23;20147;-93
2023/03/26 16:59:57;;;;;;;21.90;20.35;;;16.70;99.90;;;;;;6102549;23;20006;-92
2023/03/26 17:02:49;;;;;;;20.15;18.75;;;16.60;99.90;;;;;;6127110;23;20037;-92
2023/03/26 17:05:29;;;;;;;51.40;36.50;;;16.50;99.90;;;;;;6102604;23;20013;-93
2023/03/26 17:08:18;;;;;;;58.75;43.28;;;16.40;99.90;;;;;;6131047;23;20020;-93
2023/03/26 17:11:23;;;;;;;58.05;43.95;;;16.40;99.90;;;;;;6102445;23;20006;-93
2023/03/26 17:14:29;;;;;;;64.18;46.45;;;16.40;99.90;;;;;;6112214;23;20027;-92
2023/03/26 17:17:19;;;;;;;77.30;46.50;;;16.30;99.90;;;;;;6126389;23;20013;-91
2023/03/26 17:19:57;;;;;;;56.47;37.50;;;16.10;99.90;;;;;;6102521;23;20467;-91
2023/03/26 17:22:49;;;;;;;33.92;27.30;;;16.10;99.90;;;;;;6102777;23;20014;-93
2023/03/26 17:25:51;;;;;;;22.80;20.73;;;16.00;99.90;;;;;;6126399;23;20017;-93
2023/03/26 17:28:53;;;;;;;26.00;23.60;;;15.90;99.90;;;;;;6130543;23;20089;-93
2023/03/26 17:31:26;;;;;;;23.75;21.65;;;15.80;99.90;;;;;;6102045;23;20009;-92
2023/03/26 17:33:54;;;;;;;23.40;21.40;;;15.70;99.90;;;;;;6102925;23;20052;-91
2023/03/26 17:36:41;;;;;;;21.58;19.98;;;15.50;99.90;;;;;;6102738;23;20006;-92
2023/03/26 17:39:20;;;;;;;21.08;19.48;;;15.30;99.90;;;;;;6102666;23;20014;-92
2023/03/26 17:42:10;;;;;;;22.00;20.15;;;15.10;99.90;;;;;;6102266;23;20009;-93
2023/03/26 17:44:56;;;;;;;21.63;20.05;;;15.00;99.90;;;;;;6125977;23;20009;-93
2023/03/26 17:47:26;;;;;;;21.25;19.63;;;14.80;99.90;;;;;;6102360;23;20041;-92
2023/03/26 17:50:19;;;;;;;22.13;20.23;;;14.60;99.90;;;;;;6102430;23;20009;-93
2023/03/26 17:52:48;;;;;;;21.40;19.85;;;14.50;99.90;;;;;;6101825;23;20006;-92
2023/03/26 17:55:22;;;;;;;21.73;19.88;;;14.40;99.90;;;;;;6101838;23;20018;-92
2023/03/26 17:57:52;;;;;;;;;;;14.30;99.90;;;;;;6121746;23;20022;-91
2023/03/26 18:00:40;;;;;;;21.40;19.92;;;14.30;99.90;;;;;;6122850;23;19920;-93
2023/03/26 18:03:23;;;;;;;21.05;19.50;;;14.10;99.90;;;;;;6098442;23;20014;-92
2023/03/26 18:06:34;;;;;;;21.60;20.00;;;14.00;99.90;;;;;;6124782;23;20006;-92
2023/03/26 18:09:14;;;;;;;21.70;20.10;;;13.90;99.90;;;;;;6100179;23;20063;-92
2023/03/26 18:11:58;;;;;;;21.13;19.70;;;13.90;99.90;;;;;;6099287;23;20013;-91
2023/03/26 18:14:58;;;;;;;22.58;20.90;;;13.90;99.90;;;;;;6122790;23;20017;-91
2023/03/26 18:17:40;;;;;;;22.98;21.40;;;13.90;99.90;;;;;;6098775;23;20026;-92
2023/03/26 18:20:25;;;;;;;23.48;21.45;;;13.90;99.90;;;;;;6098553;23;20057;-92
2023/03/26 18:22:53;;;;;;;24.65;22.42;;;13.90;99.90;;;;;;6124448;23;20010;-94
2023/03/26 18:25:33;;;;;;;25.08;22.98;;;13.80;99.90;;;;;;6098926;23;20010;-93
2023/03/26 18:28:13;;;;;;;24.83;22.80;;;13.70;99.90;;;;;;6127185;23;20006;-92
2023/03/26 18:31:05;;;;;;;26.20;23.83;;;13.70;99.90;;;;;;6105104;23;20344;-92
2023/03/26 18:33:43;;;;;;;39.78;32.67;;;13.80;99.90;;;;;;6127962;23;20010;-92
2023/03/26 18:40:22;;;;;;;43.63;35.53;;;13.70;99.90;;;;;;6184299;22;20345;-93
2023/03/26 18:43:24;;;;;;;43.10;33.30;;;13.60;99.90;;;;;;6260580;22;20086;-92
2023/03/26 18:46:09;;;;;;;35.78;29.67;;;13.50;99.90;;;;;;6282461;22;20436;-94
2023/03/26 18:48:36;;;;;;;29.65;26.45;;;13.40;99.90;;;;;;6256986;22;20454;-92
2023/03/26 18:51:46;;;;;;;28.05;25.17;;;13.30;99.90;;;;;;6258071;22;20004;-94
2023/03/26 18:54:20;;;;;;;25.67;23.25;;;13.20;99.90;;;;;;6137823;23;20001;-92
2023/03/26 18:56:51;;;;;;;25.13;22.63;;;13.10;99.90;;;;;;6163048;23;20016;-90
2023/03/26 19:08:43;;;;;;;22.95;20.55;;;13.00;99.90;;;;;;6217699;22;20107;-92
2023/03/26 19:11:49;;;;;;;;;;;;;;;;;;;;;
2023/03/26 19:31:15;;;;;;;21.98;16.02;;;13.10;99.90;;;;;;6198532;22;20027;-93
2023/03/26 19:34:17;;;;;;;17.58;15.70;;;13.00;99.90;;;;;;6227613;22;20012;-93
2023/03/26 20:05:42;;;;;;;21.33;12.30;;;13.00;99.90;;;;;;6205943;23;20078;-94
2023/03/26 20:08:15;;;;;;;20.60;12.02;;;13.00;99.90;;;;;;6221980;23;20012;-93
2023/03/26 20:10:42;;;;;;;18.88;11.40;;;13.00;99.90;;;;;;6196399;23;20018;-92
2023/03/26 20:13:14;;;;;;;26.02;11.63;;;13.00;99.90;;;;;;6195856;23;20004;-93
2023/03/26 21:43:15;;;;;;;15.77;5.97;;;12.70;99.90;;;;;;6266363;22;20019;-93
2023/03/26 21:45:43;;;;;;;17.30;6.32;;;12.70;99.90;;;;;;6278738;22;20004;-93
2023/03/26 21:48:10;;;;;;;11.48;6.05;;;12.60;99.90;;;;;;6278434;22;20011;-92
2023/03/26 21:50:37;;;;;;;20.50;6.47;;;12.50;99.90;;;;;;6277799;22;20003;-93
2023/03/26 21:53:04;;;;;;;19.55;6.40;;;12.40;99.90;;;;;;6251955;22;20030;-93
2023/03/26 21:55:41;;;;;;;18.45;6.82;;;12.40;99.90;;;;;;6278072;22;20004;-93
2023/03/26 21:58:27;;;;;;;14.40;6.15;;;12.30;99.90;;;;;;6252583;22;20015;-92
2023/03/26 22:01:16;;;;;;;20.10;7.03;;;12.30;99.90;;;;;;6253321;22;20054;-92
2023/03/26 22:03:48;;;;;;;21.52;6.93;;;12.20;99.90;;;;;;6278187;22;20417;-93
2023/03/26 22:06:20;;;;;;;20.85;6.28;;;12.10;99.90;;;;;;6252394;22;20011;-92
2023/03/26 22:08:47;;;;;;;18.88;6.60;;;12.00;99.90;;;;;;6278484;22;20061;-93
2023/03/26 22:11:14;;;;;;;18.98;6.85;;;12.00;99.90;;;;;;6252717;22;20425;-93
2023/03/26 22:13:44;;;;;;;16.63;6.43;;;12.00;99.90;;;;;;6248117;22;20035;-93
2023/03/26 22:16:15;;;;;;;19.85;6.75;;;12.10;99.90;;;;;;6277922;22;20008;-93
2023/03/26 22:18:45;;;;;;;17.45;6.63;;;12.10;99.90;;;;;;6277698;22;20008;-92
2023/03/26 22:21:12;;;;;;;25.90;8.68;;;12.10;99.90;;;;;;6252536;22;20019;-92
2023/03/26 22:23:39;;;;;;;18.95;7.70;;;12.10;99.90;;;;;;6277848;22;20010;-93
2023/03/26 22:26:06;;;;;;;22.95;7.20;;;12.10;99.90;;;;;;6252522;22;20030;-93
2023/03/26 22:28:32;;;;;;;23.10;7.43;;;12.10;99.90;;;;;;6278158;22;20007;-95
2023/03/26 22:31:04;;;;;;;18.88;7.13;;;12.10;99.90;;;;;;6252587;22;20011;-94
2023/03/26 22:33:31;;;;;;;19.13;6.90;;;12.10;99.90;;;;;;6278386;22;20004;-92
2023/03/26 22:35:58;;;;;;;17.08;6.15;;;11.90;99.90;;;;;;6253109;22;20012;-93
2023/03/26 22:38:24;;;;;;;19.70;7.45;;;11.90;99.90;;;;;;6278394;22;20012;-93
2023/03/26 22:40:56;;;;;;;20.15;7.00;;;11.80;99.90;;;;;;6253724;22;20012;-93
2023/03/26 22:43:22;;;;;;;21.60;6.72;;;11.80;99.90;;;;;;6252322;22;20018;-91
2023/03/26 22:45:53;;;;;;;15.93;6.65;;;11.70;99.90;;;;;;6257035;22;20083;-94
2023/03/26 22:48:22;;;;;;;26.27;7.70;;;11.70;99.90;;;;;;6277992;22;20003;-91
2023/03/26 22:51:07;;;;;;;22.30;7.32;;;11.60;99.90;;;;;;6252228;22;20008;-93
2023/03/26 22:53:35;;;;;;;21.48;6.93;;;11.60;99.90;;;;;;6252168;22;20004;-94
